Time;durP1;ratioP1;P1;durP2;ratioP2;P2;SDS_P1;SDS_P2;PMS_P1;PMS_P2;Temp;Humidity;BMP_temperature;BMP_pressure;BME280_temperature;BME280_humidity;BME280_pressure;Samples;Min_cycle;Max_cycle;Signal;HPM_P1;HPM_P2
2023/09/25 00:01:28;;;;;;;2.13;0.90;;;;;;;-143.84;100.00;45125.22;5070877;28;20988;-57
2023/09/25 00:03:55;;;;;;;1.03;0.93;;;;;;;-143.84;100.00;45102.38;5071061;28;20463;-57
2023/09/25 00:06:22;;;;;;;1.10;0.77;;;;;;;-143.84;100.00;45117.63;5070788;28;20802;-57
2023/09/25 00:08:49;;;;;;;1.17;0.90;;;;;;;-143.84;100.00;45123.34;5070775;28;20864;-57
2023/09/25 00:11:16;;;;;;;1.40;1.00;;;;;;;-143.84;100.00;45157.59;5070540;28;20982;-57
2023/09/25 00:13:43;;;;;;;0.90;0.70;;;;;;;-143.84;100.00;45140.47;5070516;28;20441;-57
2023/09/25 00:16:13;;;;;;;1.43;1.03;;;;;;;-143.84;100.00;45142.38;5070524;28;20498;-57
2023/09/25 00:18:42;;;;;;;0.90;0.80;;;;;;;-143.84;100.00;45151.91;5070486;28;20488;-57
2023/09/25 00:21:09;;;;;;;1.10;0.83;;;;;;;-143.84;100.00;45140.47;5070671;28;20768;-57
2023/09/25 00:23:37;;;;;;;1.57;1.00;;;;;;;-143.84;100.00;45151.91;5070502;28;20478;-57
2023/09/25 00:26:04;;;;;;;1.00;0.73;;;;;;;-143.84;100.00;45129.03;5070393;28;20441;-57
2023/09/25 00:28:32;;;;;;;0.90;0.77;;;;;;;-143.84;100.00;45140.47;5070346;28;20459;-57
2023/09/25 00:30:59;;;;;;;1.50;1.40;;;;;;;-143.84;100.00;45144.28;5070309;28;20601;-57
2023/09/25 00:33:27;;;;;;;0.90;0.70;;;;;;;-143.84;100.00;45130.94;5070795;28;20502;-57
2023/09/25 00:35:56;;;;;;;0.90;0.70;;;;;;;-143.84;100.00;45155.69;5070315;28;20544;-58
2023/09/25 00:38:23;;;;;;;1.00;0.70;;;;;;;-143.84;100.00;45150.00;5070350;28;20484;-57
2023/09/25 00:40:50;;;;;;;0.90;0.60;;;;;;;-143.84;100.00;45146.19;5070305;28;20468;-57
2023/09/25 00:43:18;;;;;;;1.27;1.17;;;;;;;-143.84;100.00;45136.66;5069877;28;20919;-57
2023/09/25 00:45:47;;;;;;;1.00;0.87;;;;;;;-143.84;100.00;45151.91;5069820;28;20452;-57
2023/09/25 00:48:22;;;;;;;1.20;0.83;;;;;;;-143.84;100.00;45146.19;5069873;28;20441;-57
2023/09/25 00:50:50;;;;;;;0.90;0.63;;;;;;;-143.84;100.00;45150.00;5070224;28;20900;-57
2023/09/25 00:53:18;;;;;;;1.20;0.90;;;;;;;-143.84;100.00;45138.56;5070239;28;20529;-57
2023/09/25 00:55:46;;;;;;;1.20;1.10;;;;;;;-143.84;100.00;45161.41;5070407;28;20459;-57
2023/09/25 00:58:13;;;;;;;0.93;0.80;;;;;;;-143.84;100.00;45130.94;5069765;28;20501;-57
2023/09/25 01:00:40;;;;;;;0.90;0.70;;;;;;;-143.84;100.00;45144.28;5069638;28;20436;-57
2023/09/25 01:03:07;;;;;;;0.90;0.80;;;;;;;-143.84;100.00;45113.81;5069975;28;20923;-57
2023/09/25 01:05:37;;;;;;;1.37;0.80;;;;;;;-143.84;100.00;45155.69;5069741;28;20437;-57
2023/09/25 01:08:05;;;;;;;0.90;0.70;;;;;;;-143.84;100.00;45151.91;5069813;28;20985;-57
2023/09/25 01:10:34;;;;;;;0.97;0.87;;;;;;;-143.84;100.00;45148.09;5070116;28;20448;-57
2023/09/25 01:13:03;;;;;;;1.00;0.90;;;;;;;-143.84;100.00;45110.00;5069644;28;20441;-57
2023/09/25 01:15:30;;;;;;;0.97;0.87;;;;;;;-143.84;100.00;45127.13;5069448;28;20437;-57
2023/09/25 01:17:57;;;;;;;0.97;0.70;;;;;;;-143.84;100.00;45136.66;5069121;28;20510;-57
2023/09/25 01:20:25;;;;;;;0.97;0.87;;;;;;;-143.84;100.00;45151.91;5069262;28;20842;-57
2023/09/25 01:22:53;;;;;;;1.33;1.17;;;;;;;-143.84;100.00;45136.66;5069515;28;20855;-57
2023/09/25 01:25:23;;;;;;;1.60;1.30;;;;;;;-143.84;100.00;45153.81;5069500;28;20445;-57
2023/09/25 01:27:50;;;;;;;1.47;0.97;;;;;;;-143.84;100.00;45151.91;5069321;28;20445;-57
2023/09/25 01:30:18;;;;;;;1.13;1.03;;;;;;;-143.84;100.00;45125.22;5069503;28;20440;-57
2023/09/25 01:32:48;;;;;;;0.90;0.70;;;;;;;-143.84;100.00;45148.09;5069041;28;20473;-57
2023/09/25 01:35:17;;;;;;;3.53;0.73;;;;;;;-143.84;100.00;45130.94;5069143;28;20804;-57
2023/09/25 01:37:45;;;;;;;1.23;1.13;;;;;;;-143.84;100.00;45151.91;5068943;28;20451;-57
2023/09/25 01:40:13;;;;;;;0.90;0.80;;;;;;;-143.84;100.00;45180.47;5068950;28;20444;-57
2023/09/25 01:42:41;;;;;;;0.90;0.80;;;;;;;-143.84;100.00;45144.28;5069320;28;20460;-57
2023/09/25 01:45:10;;;;;;;0.90;0.60;;;;;;;-143.84;100.00;45132.84;5068841;28;20440;-57
2023/09/25 01:47:37;;;;;;;1.00;0.77;;;;;;;-143.84;100.00;45142.38;5068272;28;20448;-57
2023/09/25 01:50:05;;;;;;;1.50;1.20;;;;;;;-143.84;100.00;45150.00;5068867;28;20432;-57
2023/09/25 01:52:32;;;;;;;1.00;0.73;;;;;;;-143.84;100.00;45142.38;5068838;28;21369;-57
2023/09/25 01:54:59;;;;;;;1.07;0.77;;;;;;;-143.84;100.00;45167.13;5069111;28;20437;-57
2023/09/25 01:57:28;;;;;;;0.97;0.87;;;;;;;-143.84;100.00;45125.22;5068992;28;20441;-57
2023/09/25 01:59:55;;;;;;;1.53;1.33;;;;;;;-143.84;100.00;45125.22;5069116;28;20942;-57
2023/09/25 02:02:22;;;;;;;1.20;0.97;;;;;;;-143.84;100.00;45150.00;5068773;28;20436;-57
2023/09/25 02:04:49;;;;;;;1.00;0.90;;;;;;;-143.84;100.00;45136.66;5068411;28;20452;-57
2023/09/25 02:07:18;;;;;;;1.10;0.70;;;;;;;-143.84;100.00;45146.19;5068816;28;20448;-57
2023/09/25 02:09:46;;;;;;;1.40;1.03;;;;;;;-143.84;100.00;45127.13;5068469;28;20488;-57
2023/09/25 02:12:13;;;;;;;1.37;1.27;;;;;;;-143.84;100.00;45130.94;5068066;28;20563;-57
2023/09/25 02:14:41;;;;;;;1.60;1.50;;;;;;;-143.84;100.00;45148.09;5068252;28;20441;-57
2023/09/25 02:17:08;;;;;;;1.30;1.10;;;;;;;-143.84;100.00;45136.66;5068511;28;20445;-57
2023/09/25 02:19:36;;;;;;;1.83;1.00;;;;;;;-143.84;100.00;45151.91;5067820;28;20487;-57
2023/09/25 02:22:06;;;;;;;1.97;1.23;;;;;;;-143.84;100.00;45142.38;5068097;28;20456;-57
2023/09/25 02:24:35;;;;;;;0.80;0.60;;;;;;;-143.84;100.00;45148.09;5068001;28;20449;-57
2023/09/25 02:27:02;;;;;;;1.03;0.93;;;;;;;-143.84;100.00;45161.41;5068531;28;20440;-57
2023/09/25 02:29:29;;;;;;;2.90;1.70;;;;;;;-143.84;100.00;45159.50;5068224;28;20494;-57
2023/09/25 02:31:58;;;;;;;1.00;0.90;;;;;;;-143.84;100.00;45142.38;5068357;28;20492;-57
2023/09/25 02:34:25;;;;;;;1.20;1.00;;;;;;;-143.84;100.00;45148.09;5068344;28;20444;-57
2023/09/25 02:36:52;;;;;;;1.20;1.10;;;;;;;-143.84;100.00;45136.66;5068456;28;20441;-57
2023/09/25 02:39:19;;;;;;;0.90;0.60;;;;;;;-143.84;100.00;45140.47;5068500;28;20448;-57
2023/09/25 02:41:46;;;;;;;1.17;0.90;;;;;;;-143.84;100.00;45134.75;5068506;28;20445;-57
2023/09/25 02:44:13;;;;;;;1.27;1.17;;;;;;;-143.84;100.00;45148.09;5067748;28;20448;-57
2023/09/25 02:46:40;;;;;;;1.30;1.20;;;;;;;-143.84;100.00;45148.09;5068561;28;20498;-57
2023/09/25 02:49:09;;;;;;;1.03;0.93;;;;;;;-143.84;100.00;45151.91;5068371;28;20491;-57
2023/09/25 02:51:36;;;;;;;1.37;1.27;;;;;;;-143.84;100.00;45151.91;5068311;28;20530;-57
2023/09/25 02:54:03;;;;;;;1.10;1.00;;;;;;;-143.84;100.00;45153.81;5068464;28;20451;-57
2023/09/25 02:56:30;;;;;;;1.30;1.20;;;;;;;-143.84;100.00;45167.13;5068179;28;20486;-57
2023/09/25 02:58:57;;;;;;;1.20;1.10;;;;;;;-143.84;100.00;45132.84;5069692;28;20942;-57
2023/09/25 03:01:24;;;;;;;1.20;1.10;;;;;;;-143.84;100.00;45157.59;5072193;28;20857;-57
2023/09/25 03:03:51;;;;;;;1.20;1.10;;;;;;;-143.84;100.00;45165.22;5071753;28;21217;-57
2023/09/25 03:06:20;;;;;;;0.90;0.70;;;;;;;-143.84;100.00;45151.91;5071821;28;20444;-57
2023/09/25 03:08:47;;;;;;;2.00;0.70;;;;;;;-143.84;100.00;45150.00;5071233;28;20528;-57
2023/09/25 03:11:14;;;;;;;3.13;0.90;;;;;;;-143.84;100.00;45159.50;5071098;28;20428;-57
2023/09/25 03:13:42;;;;;;;2.70;1.80;;;;;;;-143.84;100.00;45180.47;5071422;28;20970;-57
2023/09/25 03:16:16;;;;;;;1.47;1.20;;;;;;;-143.84;100.00;45129.03;5071510;28;20447;-57
2023/09/25 03:18:43;;;;;;;0.90;0.73;;;;;;;-143.84;100.00;45163.31;5071479;28;20569;-57
2023/09/25 03:21:12;;;;;;;0.80;0.60;;;;;;;-143.84;100.00;45157.59;5071789;28;20437;-57
2023/09/25 03:23:41;;;;;;;1.20;1.10;;;;;;;-143.84;100.00;45144.28;5072044;28;20917;-58
2023/09/25 03:26:18;;;;;;;2.30;1.40;;;;;;;-143.84;100.00;45260.44;5049529;28;20465;-57
2023/09/25 03:28:47;;;;;;;1.00;0.80;;;;;;;-143.84;100.00;45144.28;5051619;28;20503;-57
2023/09/25 03:31:14;;;;;;;1.43;1.33;;;;;;;-143.84;100.00;45148.09;5051453;28;21359;-57
2023/09/25 03:33:42;;;;;;;1.00;0.80;;;;;;;-143.84;100.00;45140.47;5051700;28;20483;-57
2023/09/25 03:36:10;;;;;;;1.00;0.83;;;;;;;-143.84;100.00;45170.94;5051990;28;20491;-57
2023/09/25 03:38:40;;;;;;;1.20;0.77;;;;;;;-143.84;100.00;45150.00;5051389;28;20499;-58
2023/09/25 03:41:07;;;;;;;1.20;0.80;;;;;;;-143.84;100.00;45132.84;5051015;28;20515;-57
2023/09/25 03:43:34;;;;;;;1.00;0.77;;;;;;;-143.84;100.00;45163.31;5051577;28;20693;-57
2023/09/25 03:46:02;;;;;;;1.00;0.90;;;;;;;-143.84;100.00;45163.31;5066343;28;20510;-57
2023/09/25 03:48:29;;;;;;;1.27;0.80;;;;;;;-143.84;100.00;45159.50;5071136;28;20472;-57
2023/09/25 03:50:56;;;;;;;1.03;0.87;;;;;;;-143.84;100.00;45165.22;5070274;28;20440;-57
2023/09/25 03:53:23;;;;;;;1.20;1.10;;;;;;;-143.84;100.00;45155.69;5070280;28;20473;-57
2023/09/25 03:55:52;;;;;;;1.60;1.30;;;;;;;-143.84;100.00;45151.91;5070770;28;20448;-57
2023/09/25 03:58:19;;;;;;;1.20;1.03;;;;;;;-143.84;100.00;45161.41;5071198;28;20498;-57
2023/09/25 04:00:46;;;;;;;1.00;0.87;;;;;;;-143.84;100.00;45140.47;5071087;28;20433;-57
2023/09/25 04:03:13;;;;;;;1.33;1.20;;;;;;;-143.84;100.00;45142.38;5071060;28;20445;-57
2023/09/25 04:05:40;;;;;;;1.27;1.17;;;;;;;-143.84;100.00;45159.50;5070322;28;20448;-57
2023/09/25 04:08:08;;;;;;;1.80;1.40;;;;;;;-143.84;100.00;45153.81;5071074;28;21016;-57
2023/09/25 04:10:35;;;;;;;1.20;0.60;;;;;;;-143.84;100.00;45161.41;5070382;28;20456;-57
2023/09/25 04:13:04;;;;;;;1.00;0.90;;;;;;;-143.84;100.00;45155.69;5070795;28;20503;-57
2023/09/25 04:15:32;;;;;;;1.57;1.47;;;;;;;-143.84;100.00;45157.59;5070761;28;20448;-57
2023/09/25 04:17:59;;;;;;;1.90;1.80;;;;;;;-143.84;99.96;45172.84;5070871;28;20499;-57
2023/09/25 04:20:26;;;;;;;1.80;1.70;;;;;;;-143.84;100.00;45144.28;5070629;28;20433;-57
2023/09/25 04:22:56;;;;;;;1.00;0.87;;;;;;;-143.84;100.00;45148.09;5070546;28;20510;-57
2023/09/25 04:25:24;;;;;;;1.90;1.57;;;;;;;-143.84;99.75;45165.22;5070822;28;20839;-57
2023/09/25 04:27:51;;;;;;;1.67;1.37;;;;;;;-143.84;99.94;45138.56;5070420;28;20459;-57
2023/09/25 04:30:21;;;;;;;1.60;1.20;;;;;;;-143.84;99.91;45155.69;5070517;28;20800;-57
2023/09/25 04:32:53;;;;;;;2.03;1.40;;;;;;;-143.84;99.88;45136.66;5070128;28;20491;-57
2023/09/25 04:35:20;;;;;;;1.30;1.10;;;;;;;-143.84;99.86;45153.81;5070520;28;20502;-57
2023/09/25 04:37:48;;;;;;;1.30;1.20;;;;;;;-143.84;100.00;45167.13;5070516;28;20934;-57
2023/09/25 04:40:22;;;;;;;1.17;1.07;;;;;;;-143.84;100.00;45163.31;5070384;28;20433;-57
2023/09/25 04:42:50;;;;;;;1.13;1.00;;;;;;;-143.84;100.00;45169.03;5070201;28;21021;-57
2023/09/25 04:45:19;;;;;;;1.30;1.13;;;;;;;-143.84;100.00;45136.66;5069787;28;20498;-57
2023/09/25 04:47:51;;;;;;;1.20;0.87;;;;;;;-143.84;100.00;45169.03;5070524;28;20433;-57
2023/09/25 04:50:19;;;;;;;1.00;0.80;;;;;;;-143.84;100.00;45157.59;5070370;28;20437;-57
2023/09/25 04:52:46;;;;;;;1.10;1.00;;;;;;;-143.84;100.00;45142.38;5069988;28;20492;-57
2023/09/25 04:55:14;;;;;;;2.00;1.90;;;;;;;-143.84;100.00;45161.41;5069439;28;20464;-57
2023/09/25 04:57:42;;;;;;;1.67;1.57;;;;;;;-143.84;100.00;45153.81;5070132;28;20451;-57
2023/09/25 05:00:25;;;;;;;1.70;1.60;;;;;;;-143.84;100.00;45144.28;5069442;28;20883;-57
2023/09/25 05:02:54;;;;;;;1.40;1.30;;;;;;;-143.84;100.00;45144.28;5049533;28;20453;-57
2023/09/25 05:05:23;;;;;;;1.33;1.23;;;;;;;-143.84;100.00;45163.31;5049814;28;20449;-57
2023/09/25 05:07:53;;;;;;;1.73;1.13;;;;;;;-143.84;100.00;45127.13;5049647;28;20441;-57
2023/09/25 05:10:23;;;;;;;1.83;1.73;;;;;;;-143.84;100.00;45163.31;5049255;28;20503;-57
2023/09/25 05:12:51;;;;;;;1.80;1.70;;;;;;;-143.84;99.38;45115.72;5049753;28;20489;-57
2023/09/25 05:15:18;;;;;;;1.87;1.67;;;;;;;-143.84;98.97;45129.03;5049478;28;20445;-57
2023/09/25 05:17:47;;;;;;;2.27;2.07;;;;;;;-143.84;97.61;45110.00;5049833;28;20520;-57
2023/09/25 05:20:18;;;;;;;2.30;2.20;;;;;;;-143.84;96.47;45130.94;5029509;28;20449;-57
2023/09/25 05:22:48;;;;;;;1.50;1.20;;;;;;;-143.84;95.79;45113.81;5028559;28;20940;-57
2023/09/25 05:25:16;;;;;;;1.97;1.87;;;;;;;-143.84;95.27;45125.22;5029476;28;20864;-57
2023/09/25 05:27:46;;;;;;;1.40;1.30;;;;;;;-143.84;94.65;45144.28;5029276;28;20456;-58
2023/09/25 05:30:14;;;;;;;1.43;1.33;;;;;;;-143.84;93.68;45102.38;5045180;28;20442;-57
2023/09/25 05:32:42;;;;;;;0.90;0.80;;;;;;;-143.84;93.20;45094.78;5049304;28;21186;-57
2023/09/25 05:35:10;;;;;;;1.43;1.33;;;;;;;-143.84;92.23;45085.25;5049212;28;20438;-58
2023/09/25 05:37:39;;;;;;;1.57;1.37;;;;;;;-143.84;91.80;45127.13;5049806;28;20516;-57
2023/09/25 05:40:09;;;;;;;1.07;0.97;;;;;;;-143.84;91.06;45117.63;5049063;28;21172;-57
2023/09/25 05:42:36;;;;;;;1.53;1.43;;;;;;;-143.84;89.92;45111.91;5048905;28;20525;-57
2023/09/25 05:45:04;;;;;;;1.60;1.50;;;;;;;-143.84;89.30;45125.22;5048520;28;20456;-58
2023/09/25 05:47:31;;;;;;;1.23;1.00;;;;;;;-143.84;88.13;45102.38;5048990;28;20441;-57
2023/09/25 05:49:58;;;;;;;1.00;0.87;;;;;;;-143.84;87.22;45094.78;5048638;28;20445;-57
2023/09/25 05:52:25;;;;;;;1.70;1.60;;;;;;;-143.84;86.31;45104.28;5048876;28;20492;-58
2023/09/25 05:54:54;;;;;;;1.03;0.93;;;;;;;-143.84;85.55;45100.47;5049126;28;20442;-57
2023/09/25 05:57:21;;;;;;;1.20;1.07;;;;;;;-143.84;85.00;45090.97;5047988;28;20450;-57
2023/09/25 05:59:48;;;;;;;1.10;1.00;;;;;;;-143.84;84.24;45094.78;5048947;28;20429;-57
2023/09/25 06:02:15;;;;;;;1.30;1.20;;;;;;;-143.84;83.38;45079.53;5048629;28;20452;-58
2023/09/25 06:04:42;;;;;;;1.00;0.83;;;;;;;-143.84;82.90;45087.16;5048646;28;20447;-57
2023/09/25 06:07:09;;;;;;;1.10;0.80;;;;;;;-143.84;82.01;45068.13;5048824;28;20438;-58
2023/09/25 06:09:36;;;;;;;1.60;1.33;;;;;;;-143.84;81.47;45083.34;5048685;28;20450;-57
2023/09/25 06:12:05;;;;;;;0.93;0.80;;;;;;;-143.84;81.10;45073.81;5048483;28;20441;-58
2023/09/25 06:14:32;;;;;;;1.00;0.80;;;;;;;-143.84;80.30;45092.88;5048626;28;20461;-58
2023/09/25 06:16:59;;;;;;;1.00;0.73;;;;;;;-143.84;80.01;45083.34;5048482;28;20479;-58
2023/09/25 06:19:27;;;;;;;1.20;0.80;;;;;;;-143.84;79.79;45052.88;5061894;28;20988;-58
2023/09/25 06:21:54;;;;;;;1.47;1.10;;;;;;;-143.84;78.74;45073.81;5068535;28;20934;-58
2023/09/25 06:24:21;;;;;;;1.30;1.10;;;;;;;-143.84;77.94;45062.41;5068381;28;20487;-57
2023/09/25 06:26:49;;;;;;;1.23;0.80;;;;;;;-143.84;78.08;45081.44;5068270;28;20444;-58
2023/09/25 06:29:18;;;;;;;1.63;1.53;;;;;;;-143.84;76.82;45083.34;5068415;28;20472;-58
2023/09/25 06:31:45;;;;;;;1.50;1.30;;;;;;;-143.84;75.90;45060.50;5068452;28;20814;-58
2023/09/25 06:34:12;;;;;;;1.53;1.20;;;;;;;-143.84;74.95;45043.34;5072482;28;21040;-58
2023/09/25 06:36:39;;;;;;;0.90;0.70;;;;;;;-143.84;74.06;45041.44;5075208;28;20838;-58
2023/09/25 06:39:09;;;;;;;1.00;0.87;;;;;;;-143.84;72.51;45081.44;5075100;28;20966;-58
2023/09/25 06:41:37;;;;;;;1.30;0.80;;;;;;;-143.84;72.33;45049.06;5074977;28;20437;-58
2023/09/25 06:44:05;;;;;;;1.00;0.70;;;;;;;-143.84;71.27;45077.63;5074998;28;20425;-58
2023/09/25 06:46:34;;;;;;;4.40;1.00;;;;;;;-143.84;69.89;45043.34;5074879;28;20450;-58
2023/09/25 06:49:02;;;;;;;1.10;0.80;;;;;;;-143.84;66.99;45018.59;5074809;28;20502;-58
2023/09/25 06:51:30;;;;;;;1.73;0.73;;;;;;;-143.84;66.04;45056.69;5074890;28;20498;-58
2023/09/25 06:53:57;;;;;;;1.10;1.00;;;;;;;-143.84;62.06;45020.50;5074559;28;20488;-58
2023/09/25 06:56:25;;;;;;;1.10;0.83;;;;;;;-143.84;60.29;45030.03;5074769;28;20492;-58
2023/09/25 06:58:52;;;;;;;0.97;0.63;;;;;;;-143.84;58.86;45041.44;5074956;28;20437;-58
2023/09/25 07:01:20;;;;;;;1.17;1.07;;;;;;;-143.84;58.04;45014.78;5075014;28;20440;-58
2023/09/25 07:03:48;;;;;;;1.63;1.20;;;;;;;-143.84;56.99;45018.59;5074653;28;20548;-58
2023/09/25 07:06:16;;;;;;;1.00;0.73;;;;;;;-143.84;55.80;45037.66;5074689;28;20459;-58
2023/09/25 07:08:43;;;;;;;0.90;0.50;;;;;;;-143.84;56.00;45022.41;5074819;28;20433;-58
2023/09/25 07:11:10;;;;;;;0.93;0.70;;;;;;;-143.84;57.22;45041.44;5074671;28;20447;-58
2023/09/25 07:13:38;;;;;;;1.60;0.93;;;;;;;-143.84;56.39;45033.84;5074590;28;20487;-58
2023/09/25 07:16:08;;;;;;;0.90;0.70;;;;;;;-143.84;56.68;45041.44;5074649;28;20448;-58
2023/09/25 07:18:35;;;;;;;0.90;0.70;;;;;;;-143.84;57.01;45007.19;5074690;28;20488;-58
2023/09/25 07:21:05;;;;;;;1.00;0.77;;;;;;;-143.84;57.10;45030.03;5074634;28;20494;-58
2023/09/25 07:23:32;;;;;;;1.00;0.67;;;;;;;-143.84;55.74;45031.94;5074471;28;20574;-58
2023/09/25 07:26:01;;;;;;;1.00;0.70;;;;;;;-143.84;55.11;45024.31;5074546;28;20440;-58
2023/09/25 07:28:28;;;;;;;1.10;1.00;;;;;;;-143.84;53.23;45016.69;5074674;28;20475;-58
2023/09/25 07:30:55;;;;;;;1.40;1.10;;;;;;;-143.84;53.52;44999.56;5074635;28;20440;-58
2023/09/25 07:33:23;;;;;;;1.07;0.83;;;;;;;-143.84;52.98;45007.19;5074515;28;20546;-58
2023/09/25 07:35:50;;;;;;;0.80;0.40;;;;;;;-143.84;55.04;45007.19;5074761;28;20428;-58
2023/09/25 07:38:19;;;;;;;1.93;1.10;;;;;;;-143.84;54.04;45014.78;5074186;28;20440;-58
2023/09/25 07:40:47;;;;;;;0.87;0.50;;;;;;;-143.84;54.97;45018.59;5074361;28;21119;-58
2023/09/25 07:43:19;;;;;;;1.00;0.80;;;;;;;-143.84;53.49;45014.78;5074847;28;20491;-58
2023/09/25 07:45:48;;;;;;;1.60;1.50;;;;;;;-143.84;53.15;45016.69;5070199;28;20540;-58
2023/09/25 07:48:16;;;;;;;1.07;0.97;;;;;;;-143.84;53.34;45018.59;5070912;28;20441;-58
2023/09/25 07:50:45;;;;;;;1.17;1.07;;;;;;;-143.84;50.37;45010.97;5071180;28;20449;-58
2023/09/25 07:53:12;;;;;;;0.90;0.70;;;;;;;-143.84;50.67;45001.47;5070792;28;21121;-58
2023/09/25 07:55:41;;;;;;;1.00;0.77;;;;;;;-143.84;49.84;45012.88;5070753;28;21024;-58
2023/09/25 07:58:11;;;;;;;0.97;0.73;;;;;;;-143.84;49.62;44993.84;5070800;28;20962;-58
2023/09/25 08:00:44;;;;;;;1.00;0.87;;;;;;;-143.84;49.10;44991.94;5070901;28;20445;-58
2023/09/25 08:03:15;;;;;;;1.30;1.00;;;;;;;-143.84;48.37;45005.28;5071026;28;20453;-58
2023/09/25 08:05:42;;;;;;;0.90;0.60;;;;;;;-143.84;48.77;45010.97;5070835;28;21246;-58
2023/09/25 08:08:11;;;;;;;0.90;0.50;;;;;;;-143.84;46.72;44965.28;5070854;28;20432;-58
2023/09/25 08:10:37;;;;;;;1.00;0.70;;;;;;;-143.84;46.78;45005.28;5070894;28;20495;-58
2023/09/25 08:13:05;;;;;;;0.93;0.70;;;;;;;-143.84;46.37;44988.13;5070717;28;20503;-58
2023/09/25 08:15:35;;;;;;;0.90;0.60;;;;;;;-143.84;45.54;44965.28;5070715;28;20448;-58
2023/09/25 08:18:03;;;;;;;1.00;0.60;;;;;;;-143.84;46.49;44999.56;5068747;28;20462;-58
2023/09/25 08:20:30;;;;;;;0.90;0.57;;;;;;;-143.84;45.92;44974.81;5070659;28;20452;-58
2023/09/25 08:22:58;;;;;;;1.00;0.90;;;;;;;-143.84;46.15;45014.78;5070409;28;20495;-59
2023/09/25 08:25:25;;;;;;;1.00;0.63;;;;;;;-143.84;45.92;44961.47;5070502;28;20441;-59
2023/09/25 08:27:53;;;;;;;1.10;0.90;;;;;;;-143.84;45.58;44974.81;5070464;28;20451;-59
2023/09/25 08:30:22;;;;;;;1.17;0.90;;;;;;;-143.84;45.64;44988.13;5070469;28;20444;-59
2023/09/25 08:32:50;;;;;;;1.50;1.10;;;;;;;-143.84;45.72;44988.13;5070163;28;20444;-59
2023/09/25 08:35:17;;;;;;;1.10;1.00;;;;;;;-143.84;44.87;44978.63;5070305;28;20520;-59
2023/09/25 08:37:44;;;;;;;0.90;0.80;;;;;;;-143.84;45.53;44957.66;5070341;28;20449;-59
2023/09/25 08:40:13;;;;;;;0.90;0.57;;;;;;;-143.84;45.19;44976.72;5070351;28;20445;-59
2023/09/25 08:42:40;;;;;;;1.40;1.30;;;;;;;-143.84;45.98;44988.13;5070225;28;20962;-59
2023/09/25 08:45:08;;;;;;;1.60;1.03;;;;;;;-143.84;45.35;44957.66;5069667;28;20519;-59
2023/09/25 08:47:38;;;;;;;0.90;0.60;;;;;;;-143.84;45.53;44974.81;5070002;28;20452;-59
2023/09/25 08:50:09;;;;;;;1.07;0.97;;;;;;;-143.84;46.53;44980.53;5070261;28;20451;-59
2023/09/25 08:52:36;;;;;;;0.90;0.60;;;;;;;-143.84;45.48;44955.75;5069979;28;20440;-59
2023/09/25 08:55:05;;;;;;;1.00;0.60;;;;;;;-143.84;46.31;44971.00;5069858;28;20546;-59
2023/09/25 08:57:32;;;;;;;0.90;0.60;;;;;;;-143.84;47.57;44978.63;5069863;28;20452;-59
2023/09/25 09:00:11;;;;;;;3.63;1.07;;;;;;;-143.84;46.75;44997.66;5070166;28;20436;-59
2023/09/25 09:02:41;;;;;;;1.13;0.83;;;;;;;-143.84;46.67;44950.06;5069725;28;20958;-59
2023/09/25 09:05:10;;;;;;;1.23;1.13;;;;;;;-143.84;47.02;45005.28;5069909;28;21201;-59
2023/09/25 09:07:37;;;;;;;1.00;0.77;;;;;;;-143.84;46.26;44974.81;5069545;28;21021;-59
2023/09/25 09:10:04;;;;;;;1.10;0.80;;;;;;;-143.84;45.87;44976.72;5069783;28;20967;-59
2023/09/25 09:12:32;;;;;;;1.00;0.70;;;;;;;-143.84;47.41;44993.84;5069770;28;20444;-59
2023/09/25 09:14:59;;;;;;;1.03;0.60;;;;;;;-143.84;45.54;44995.75;5070033;28;20477;-59
2023/09/25 09:17:29;;;;;;;1.03;0.80;;;;;;;-143.84;45.56;44990.03;5069395;28;20453;-59
2023/09/25 09:19:58;;;;;;;0.97;0.77;;;;;;;-143.84;45.41;44972.91;5069205;28;20503;-59
2023/09/25 09:22:26;;;;;;;1.23;1.13;;;;;;;-143.84;45.77;44995.75;5069405;28;20447;-59
2023/09/25 09:24:56;;;;;;;1.00;0.87;;;;;;;-143.84;45.20;44982.41;5069320;28;20440;-59
2023/09/25 09:27:26;;;;;;;1.10;0.80;;;;;;;-143.84;44.67;44986.22;5067761;28;20449;-59
2023/09/25 09:29:56;;;;;;;1.57;0.80;;;;;;;-143.84;45.75;45001.47;5069559;28;20448;-59
2023/09/25 09:32:24;;;;;;;1.00;0.80;;;;;;;-143.84;45.38;44982.41;5069339;28;20539;-59
2023/09/25 09:34:53;;;;;;;1.00;0.70;;;;;;;-143.84;45.13;45010.97;5068781;28;20488;-59
2023/09/25 09:37:23;;;;;;;0.93;0.67;;;;;;;-143.84;45.67;44988.13;5069399;28;21441;-59
2023/09/25 09:39:52;;;;;;;1.00;0.80;;;;;;;-143.84;45.80;44980.53;5069396;28;20441;-59
2023/09/25 09:42:24;;;;;;;0.90;0.70;;;;;;;-143.84;45.76;44965.28;5069117;28;20449;-59
2023/09/25 09:44:52;;;;;;;1.63;1.53;;;;;;;-143.84;44.93;44988.13;5069192;28;20436;-59
2023/09/25 09:47:21;;;;;;;0.90;0.57;;;;;;;-143.84;44.45;45005.28;5069023;28;20515;-59
2023/09/25 09:49:49;;;;;;;0.90;0.57;;;;;;;-143.84;44.10;44976.72;5068902;28;20440;-59
2023/09/25 09:52:19;;;;;;;1.80;1.20;;;;;;;-143.84;44.72;44980.53;5068837;28;20432;-59
2023/09/25 09:54:50;;;;;;;0.90;0.80;;;;;;;-143.84;44.32;44990.03;5068707;28;20491;-59
2023/09/25 09:57:20;;;;;;;1.07;0.97;;;;;;;-143.84;44.16;44993.84;5069133;28;20441;-59
2023/09/25 09:59:48;;;;;;;1.10;0.73;;;;;;;-143.84;44.11;44999.56;5068876;28;20962;-59
2023/09/25 10:02:17;;;;;;;0.90;0.70;;;;;;;-143.84;44.17;45005.28;5068780;28;20430;-59
2023/09/25 10:04:44;;;;;;;0.90;0.70;;;;;;;-143.84;43.20;44984.31;5068960;28;20441;-59
2023/09/25 10:07:12;;;;;;;0.97;0.60;;;;;;;-143.84;43.26;44993.84;5068968;28;20824;-59
2023/09/25 10:09:57;;;;;;;1.33;0.83;;;;;;;-143.84;42.15;44988.13;5068231;28;20511;-59
2023/09/25 10:12:40;;;;;;;2.00;1.20;;;;;;;-143.84;42.67;44984.31;5068661;28;20445;-59
2023/09/25 10:15:12;;;;;;;1.00;0.70;;;;;;;-143.84;41.91;45010.97;5068984;28;20496;-59
2023/09/25 10:17:42;;;;;;;1.27;0.87;;;;;;;-143.84;42.53;44974.81;5068591;28;20460;-59
2023/09/25 10:20:29;;;;;;;1.20;0.90;;;;;;;-143.84;41.63;44961.47;5068613;28;20507;-59
2023/09/25 10:23:00;;;;;;;0.90;0.70;;;;;;;-143.84;41.23;45005.28;5068453;28;20531;-58
2023/09/25 10:25:31;;;;;;;0.90;0.60;;;;;;;-143.84;39.93;45009.09;5068513;28;20440;-59
2023/09/25 10:27:58;;;;;;;0.97;0.70;;;;;;;-143.84;40.05;45009.09;5068546;28;20996;-59
2023/09/25 10:30:27;;;;;;;0.90;0.70;;;;;;;-143.84;41.53;44948.16;5068448;28;20448;-58
2023/09/25 10:32:56;;;;;;;0.90;0.50;;;;;;;-143.84;41.49;44965.28;5068550;28;20473;-58
2023/09/25 10:35:40;;;;;;;1.00;0.60;;;;;;;-143.84;40.95;44967.19;5068487;28;20476;-59
2023/09/25 10:38:19;;;;;;;1.50;0.80;;;;;;;-143.84;40.62;44961.47;5068911;28;20444;-59
2023/09/25 10:40:49;;;;;;;1.30;1.00;;;;;;;-143.84;41.89;44961.47;5068458;28;20532;-59
2023/09/25 10:43:19;;;;;;;0.90;0.50;;;;;;;-143.84;40.52;44961.47;5068326;28;20516;-59
2023/09/25 10:45:46;;;;;;;1.00;0.83;;;;;;;-143.84;40.10;44974.81;5067998;28;20437;-59
2023/09/25 10:48:14;;;;;;;1.10;0.90;;;;;;;-143.84;41.37;44950.06;5068258;28;20516;-59
2023/09/25 10:50:43;;;;;;;0.90;0.50;;;;;;;-143.84;40.09;44982.41;5067597;28;20479;-59
2023/09/25 10:53:11;;;;;;;1.00;0.90;;;;;;;-143.84;39.78;44959.56;5067960;28;20456;-59
2023/09/25 10:55:38;;;;;;;1.00;0.90;;;;;;;-143.84;39.83;44976.72;5068264;28;20485;-59
2023/09/25 10:58:09;;;;;;;1.13;0.70;;;;;;;-143.84;40.08;44978.63;5068051;28;20498;-59
2023/09/25 11:00:39;;;;;;;1.07;0.77;;;;;;;-143.84;40.66;44972.91;5067944;28;20901;-59
2023/09/25 11:03:07;;;;;;;1.00;0.80;;;;;;;-143.84;39.41;44988.13;5068595;28;21231;-59
2023/09/25 11:05:35;;;;;;;1.10;0.57;;;;;;;-143.84;39.73;44963.38;5068401;28;20441;-59
2023/09/25 11:08:04;;;;;;;0.90;0.60;;;;;;;-143.84;39.63;44965.28;5068083;28;20436;-59
2023/09/25 11:10:32;;;;;;;2.30;1.20;;;;;;;-143.84;39.78;44982.41;5068239;28;20459;-59
2023/09/25 11:13:00;;;;;;;1.00;0.80;;;;;;;-143.84;40.91;44984.31;5068002;28;20441;-59
2023/09/25 11:15:29;;;;;;;1.00;0.70;;;;;;;-143.84;40.27;44999.56;5067715;28;20486;-59
2023/09/25 11:17:57;;;;;;;0.90;0.70;;;;;;;-143.84;39.95;44999.56;5068147;28;20448;-59
2023/09/25 11:20:29;;;;;;;0.90;0.57;;;;;;;-143.84;40.31;44978.63;5068886;28;20439;-59